createdAt,value
2017-04-04T00:01:06.761Z,73.89
2017-04-04T00:02:20.424Z,73.8
2017-04-04T00:03:34.661Z,73.89
2017-04-04T00:04:48.289Z,73.41
2017-04-04T00:06:02.895Z,73.7
2017-04-04T00:07:16.831Z,73.99
2017-04-04T00:08:30.781Z,73.99
2017-04-04T00:09:44.333Z,74.08
2017-04-04T00:10:58.700Z,74.18
2017-04-04T00:12:12.570Z,73.8
2017-04-04T00:13:26.169Z,74.27
2017-04-04T00:14:39.819Z,73.99
2017-04-04T00:15:53.367Z,74.46
2017-04-04T00:17:07.344Z,74.27
2017-04-04T00:18:21.304Z,74.18
2017-04-04T00:19:35.160Z,74.65
2017-04-04T00:20:48.711Z,74.56
2017-04-04T00:22:02.575Z,74.84
2017-04-04T00:23:16.663Z,74.46
2017-04-04T00:24:30.495Z,74.75
2017-04-04T00:25:44.001Z,74.46
2017-04-04T00:26:57.531Z,74.65
2017-04-04T00:28:11.453Z,75.04
2017-04-04T00:29:25.533Z,75.13
2017-04-04T00:30:39.426Z,74.94
2017-04-04T00:31:53.595Z,74.94
2017-04-04T00:33:07.161Z,74.94
2017-04-04T00:34:21.421Z,75.7
2017-04-04T00:35:35.762Z,75.7
2017-04-04T00:36:49.617Z,75.51
2017-04-04T00:38:03.151Z,75.04
2017-04-04T00:39:19.243Z,75.51
2017-04-04T00:40:32.787Z,75.32
2017-04-04T00:41:46.458Z,75.23
2017-04-04T00:43:01.395Z,75.38
2017-04-04T00:44:14.982Z,75.47
2017-04-04T00:45:28.540Z,75.89
2017-04-04T00:46:42.072Z,75.67
2017-04-04T00:47:55.679Z,75.95
2017-04-04T00:49:09.596Z,75.95
2017-04-04T00:50:23.208Z,76.14
2017-04-04T00:51:36.770Z,76.04
2017-04-04T00:52:50.628Z,75.95
2017-04-04T00:54:04.563Z,75.95
2017-04-04T00:55:18.744Z,76.42
2017-04-04T00:56:32.346Z,76.23
2017-04-04T00:57:45.999Z,76.04
2017-04-04T00:58:59.515Z,76.14
2017-04-04T01:00:13.095Z,76.42
2017-04-04T01:01:27.056Z,76.42
2017-04-04T01:02:40.587Z,76.71
2017-04-04T01:03:54.435Z,76.81
2017-04-04T01:05:07.954Z,77.09
2017-04-04T01:06:21.836Z,76.9
2017-04-04T01:07:35.728Z,77.19
2017-04-04T01:08:49.282Z,77.19
2017-04-04T01:10:03.090Z,77.28
2017-04-04T01:11:16.673Z,77.37
2017-04-04T01:12:30.209Z,77.76
2017-04-04T01:13:44.092Z,77.56
2017-04-04T01:14:57.654Z,77.56
2017-04-04T01:16:11.235Z,77.76
2017-04-04T01:17:24.755Z,77.85
2017-04-04T01:18:38.342Z,77.95
2017-04-04T01:19:52.148Z,77.66
2017-04-04T01:21:05.698Z,77.85
2017-04-04T01:22:19.268Z,77.85
2017-04-04T01:23:32.788Z,78.42
2017-04-04T01:24:46.339Z,78.23
2017-04-04T01:26:00.199Z,77.95
2017-04-04T01:27:14.205Z,78.42
2017-04-04T01:28:28.069Z,78.48
2017-04-04T01:29:41.853Z,78.57
2017-04-04T01:30:55.421Z,78.57
2017-04-04T01:32:09.309Z,78.42
2017-04-04T01:33:22.882Z,78.29
2017-04-04T01:34:36.425Z,78.67
2017-04-04T01:35:49.955Z,78.38
2017-04-04T01:37:03.870Z,78.29
2017-04-04T01:38:17.737Z,78.48
2017-04-04T01:39:31.383Z,78.57
2017-04-04T01:40:44.917Z,78.29
2017-04-04T01:41:58.429Z,78.96
2017-04-04T01:43:12.047Z,78.77
2017-04-04T01:44:25.865Z,78.29
2017-04-04T01:45:39.388Z,79.14
2017-04-04T01:46:53.142Z,79.24
2017-04-04T01:48:06.716Z,79.33
2017-04-04T01:49:20.595Z,79.24
2017-04-04T01:50:34.413Z,79.05
2017-04-04T01:51:47.964Z,78.77
2017-04-04T01:53:01.546Z,78.96
2017-04-04T01:54:15.165Z,78.96
2017-04-04T01:55:30.948Z,78.86
2017-04-04T01:56:44.797Z,79.05
2017-04-04T01:57:58.323Z,79.05
2017-04-04T01:59:12.037Z,79.14
2017-04-04T02:00:25.587Z,79.24
2017-04-04T02:01:39.172Z,79.14
2017-04-04T02:02:53.022Z,79.33
2017-04-04T02:04:06.961Z,79.33
2017-04-04T02:05:20.474Z,79.43
2017-04-04T02:06:34.187Z,79.24
2017-04-04T02:07:47.708Z,79.33
2017-04-04T02:09:01.851Z,79.24
2017-04-04T02:10:15.572Z,79.72
2017-04-04T02:11:29.101Z,79.52
2017-04-04T02:12:42.662Z,79.62
2017-04-04T02:13:56.186Z,79.62
2017-04-04T02:15:10.073Z,79.62
2017-04-04T02:16:24.045Z,79.72
2017-04-04T02:17:37.583Z,79.91
2017-04-04T02:18:51.162Z,80
2017-04-04T02:20:04.737Z,79.62
2017-04-04T02:21:18.540Z,80.1
2017-04-04T02:22:32.068Z,79.81
2017-04-04T02:23:45.603Z,79.91
2017-04-04T02:24:59.120Z,80.1
2017-04-04T02:26:13.174Z,80
2017-04-04T02:27:27.007Z,79.81
2017-04-04T02:28:40.553Z,80
2017-04-04T02:29:54.096Z,79.91
2017-04-04T02:31:07.663Z,79.72
2017-04-04T02:32:21.580Z,79.91
2017-04-04T02:33:35.430Z,80.76
2017-04-04T02:34:48.976Z,80.19
2017-04-04T02:36:02.616Z,80.86
2017-04-04T02:37:16.145Z,80.66
2017-04-04T02:38:29.800Z,81.14
2017-04-04T02:39:43.636Z,80.86
2017-04-04T02:40:57.491Z,80.86
2017-04-04T02:42:11.085Z,80.95
2017-04-04T02:43:24.667Z,80.95
2017-04-04T02:44:39.279Z,81.05
2017-04-04T02:45:53.420Z,80.95
2017-04-04T02:47:06.994Z,80.86
2017-04-04T02:48:20.517Z,81.62
2017-04-04T02:49:34.038Z,81.58
2017-04-04T02:50:47.592Z,81.43
2017-04-04T02:52:01.180Z,81.43
2017-04-04T02:53:14.722Z,81.33
2017-04-04T02:54:28.261Z,81.33
2017-04-04T02:55:41.793Z,81.29
2017-04-04T02:56:55.304Z,81.33
2017-04-04T02:58:09.192Z,81.1
2017-04-04T02:59:25.096Z,81.29
2017-04-04T03:00:38.753Z,81.58
2017-04-04T03:01:52.519Z,81.58
2017-04-04T03:03:07.836Z,81.48
2017-04-04T03:04:21.925Z,81.67
2017-04-04T03:05:35.986Z,81.86
2017-04-04T03:06:49.814Z,81.77
2017-04-04T03:08:03.681Z,81.2
2017-04-04T03:09:19.405Z,81.29
2017-04-04T03:10:34.805Z,81.58
2017-04-04T03:11:52.085Z,81.2
2017-04-04T03:13:05.678Z,81.38
2017-04-04T03:14:19.732Z,81.48
2017-04-04T03:15:34.150Z,81.67
2017-04-04T03:16:49.343Z,81.67
2017-04-04T03:18:04.381Z,81.77
2017-04-04T03:19:17.892Z,81.67
2017-04-04T03:20:31.425Z,81.48
2017-04-04T03:21:44.934Z,81.77
2017-04-04T03:22:58.812Z,81.86
2017-04-04T03:24:12.322Z,81.96
2017-04-04T03:25:25.847Z,81.96
2017-04-04T03:26:39.380Z,81.96
2017-04-04T03:27:52.902Z,82.15
2017-04-04T03:29:06.760Z,82.62
2017-04-04T03:30:20.282Z,82.53
2017-04-04T03:31:33.795Z,82.53
2017-04-04T03:32:47.333Z,82.43
2017-04-04T03:34:01.114Z,82.81
2017-04-04T03:35:14.911Z,83
2017-04-04T03:36:28.461Z,82.81
2017-04-04T03:37:42.029Z,82.91
2017-04-04T03:38:55.641Z,82.91
2017-04-04T03:40:09.189Z,82.91
2017-04-04T03:41:23.015Z,82.62
2017-04-04T03:42:36.691Z,83.29
2017-04-04T03:43:50.242Z,83
2017-04-04T03:45:03.824Z,83.19
2017-04-04T03:46:17.343Z,83.19
2017-04-04T03:47:31.145Z,83.29
2017-04-04T03:48:44.844Z,83.1
2017-04-04T03:49:58.594Z,83.58
2017-04-04T03:51:12.141Z,83.48
2017-04-04T03:52:25.698Z,83.48
2017-04-04T03:53:39.505Z,83.48
2017-04-04T03:54:53.075Z,83.58
2017-04-04T03:56:06.654Z,83.39
2017-04-04T03:57:20.520Z,83.58
2017-04-04T03:58:34.116Z,83.39
2017-04-04T03:59:47.959Z,83.67
2017-04-04T04:01:01.691Z,83.39
2017-04-04T04:02:15.266Z,83.48
2017-04-04T04:03:29.146Z,83.48
2017-04-04T04:04:43.966Z,83.29
2017-04-04T04:05:57.837Z,83.76
2017-04-04T04:07:11.359Z,83.86
2017-04-04T04:08:24.909Z,83.95
2017-04-04T04:09:38.440Z,84.05
2017-04-04T04:10:52.067Z,83.76
2017-04-04T04:12:05.948Z,83.95
2017-04-04T04:13:57.753Z,84.72
2017-04-04T04:15:11.313Z,84.43
2017-04-04T04:16:24.909Z,84.91
2017-04-04T04:17:38.803Z,84.33
2017-04-04T04:18:52.507Z,84.62
2017-04-04T04:20:06.619Z,84.43
2017-04-04T04:21:20.509Z,84.05
2017-04-04T04:22:34.925Z,84.43
2017-04-04T04:23:50.806Z,84.33
2017-04-04T04:25:05.773Z,84.52
2017-04-04T04:26:19.930Z,84.72
2017-04-04T04:27:33.649Z,85
2017-04-04T04:28:49.370Z,84.43
2017-04-04T04:30:03.483Z,84.62
2017-04-04T04:31:17.049Z,84.81
2017-04-04T04:32:30.650Z,84.91
2017-04-04T04:33:44.173Z,87.38
2017-04-04T04:34:57.706Z,83.86
2017-04-04T04:36:12.186Z,83.86
2017-04-04T04:37:25.763Z,84.43
2017-04-04T04:38:39.399Z,84.52
2017-04-04T04:39:53.257Z,84.86
2017-04-04T04:41:07.101Z,84.39
2017-04-04T04:42:20.913Z,84.48
2017-04-04T04:43:34.485Z,85
2017-04-04T04:44:48.316Z,84.86
2017-04-04T04:46:01.843Z,85.43
2017-04-04T04:47:15.366Z,85.24
2017-04-04T04:48:29.233Z,85.43
2017-04-04T04:49:42.765Z,84.77
2017-04-04T04:50:57.147Z,84.77
2017-04-04T04:52:10.667Z,84.95
2017-04-04T04:53:24.507Z,85.43
2017-04-04T04:54:38.339Z,85.24
2017-04-04T04:55:52.255Z,85.43
2017-04-04T04:57:05.864Z,85.43
2017-04-04T04:58:20.386Z,85.05
2017-04-04T04:59:33.915Z,85.53
2017-04-04T05:00:47.739Z,85.05
2017-04-04T05:02:01.248Z,85.34
2017-04-04T05:03:15.156Z,84.77
2017-04-04T05:04:28.801Z,85.05
2017-04-04T05:05:42.328Z,85.43
2017-04-04T05:06:56.149Z,85.34
2017-04-04T05:08:09.705Z,85.43
2017-04-04T05:09:23.348Z,84.86
2017-04-04T05:10:37.072Z,84.86
2017-04-04T05:11:50.646Z,84.58
2017-04-04T05:13:04.553Z,84.86
2017-04-04T05:14:18.128Z,84.29
2017-04-04T05:15:31.766Z,84.58
2017-04-04T05:16:45.746Z,84.29
2017-04-04T05:17:59.264Z,84.33
2017-04-04T05:19:13.546Z,84.58
2017-04-04T05:20:27.141Z,84.24
2017-04-04T05:21:41.743Z,84.39
2017-04-04T05:22:55.447Z,83.72
2017-04-04T05:24:09.153Z,83.95
2017-04-04T05:25:24.198Z,83.67
2017-04-04T05:26:37.843Z,83.95
2017-04-04T05:27:51.705Z,83.48
2017-04-04T05:29:05.338Z,83.19
2017-04-04T05:30:19.003Z,83.29
2017-04-04T05:31:32.700Z,83.48
2017-04-04T05:32:46.247Z,83.29
2017-04-04T05:33:59.841Z,83.29
2017-04-04T05:35:13.452Z,82.62
2017-04-04T05:36:27.257Z,82.91
2017-04-04T05:37:41.444Z,82.81
2017-04-04T05:38:55.004Z,82.53
2017-04-04T05:40:09.002Z,82.34
2017-04-04T05:41:24.248Z,81.67
2017-04-04T05:42:37.913Z,81.1
2017-04-04T05:43:51.764Z,81.38
2017-04-04T05:45:07.523Z,81.05
2017-04-04T05:46:21.110Z,80.47
2017-04-04T05:47:35.060Z,80.47
2017-04-04T05:48:48.784Z,80.38
2017-04-04T05:50:03.157Z,79.91
2017-04-04T05:51:16.698Z,79.91
2017-04-04T05:52:30.443Z,79.62
2017-04-04T05:53:44.316Z,79.81
2017-04-04T05:54:59.121Z,79.52
2017-04-04T05:56:13.011Z,79.62
2017-04-04T05:57:26.935Z,79.52
2017-04-04T05:58:40.484Z,79.91
2017-04-04T05:59:54.403Z,79.62
2017-04-04T06:01:07.980Z,79.72
2017-04-04T06:02:21.866Z,79.52
2017-04-04T06:03:35.408Z,79.52
2017-04-04T06:04:58.269Z,79.43
2017-04-04T06:06:11.933Z,78.86
2017-04-04T06:07:25.996Z,78.86
2017-04-04T06:08:40.520Z,78.86
2017-04-04T06:09:54.846Z,78.67
2017-04-04T06:11:09.139Z,78.96
2017-04-04T06:12:24.684Z,79.24
2017-04-04T06:13:38.610Z,78.96
2017-04-04T06:14:52.472Z,78.57
2017-04-04T06:16:06.711Z,78.38
2017-04-04T06:17:20.622Z,78.77
2017-04-04T06:18:34.631Z,78
2017-04-04T06:19:49.894Z,77.43
2017-04-04T06:21:03.747Z,78.19
2017-04-04T06:22:17.289Z,78.14
2017-04-04T06:23:30.873Z,77.76
2017-04-04T06:24:44.410Z,77.47
2017-04-04T06:25:57.934Z,77.28
2017-04-04T06:27:11.789Z,76.9
2017-04-04T06:28:26.955Z,76.81
2017-04-04T06:29:41.217Z,76.81
2017-04-04T06:30:54.758Z,76.42
2017-04-04T06:32:09.762Z,76.9
2017-04-04T06:33:24.066Z,76.61
2017-04-04T06:34:37.582Z,75.85
2017-04-04T06:35:51.453Z,75.47
2017-04-04T06:37:04.998Z,74.75
2017-04-04T06:38:18.521Z,75.19
2017-04-04T06:39:32.481Z,74.94
2017-04-04T06:40:46.406Z,74.56
2017-04-04T06:42:00.360Z,74.27
2017-04-04T06:43:13.932Z,74.27
2017-04-04T06:44:27.844Z,74.84
2017-04-04T06:45:42.218Z,74.46
2017-04-04T06:46:56.077Z,74.27
2017-04-04T06:48:09.594Z,74.46
2017-04-04T06:49:23.136Z,73.99
2017-04-04T06:50:36.751Z,74.18
2017-04-04T06:51:50.695Z,74.27
2017-04-04T06:53:04.241Z,73.99
2017-04-04T06:54:17.882Z,73.99
2017-04-04T06:55:31.471Z,73.99
2017-04-04T06:56:45.066Z,73.99
2017-04-04T06:57:59.234Z,73.8
2017-04-04T06:59:12.837Z,73.8
2017-04-04T07:00:26.422Z,73.7
2017-04-04T07:01:42.177Z,73.13
2017-04-04T07:02:55.813Z,72.94
2017-04-04T07:04:09.376Z,72.94
2017-04-04T07:05:23.129Z,72.08
2017-04-04T07:06:36.733Z,72.37
2017-04-04T07:07:50.272Z,72.27
2017-04-04T07:09:03.845Z,72.46
2017-04-04T07:10:17.728Z,72.21
2017-04-04T07:11:31.459Z,72.21
2017-04-04T07:12:45.035Z,72.02
2017-04-04T07:13:58.619Z,72.17
2017-04-04T07:15:12.176Z,71.83
2017-04-04T07:16:25.800Z,71.83
2017-04-04T07:17:39.412Z,71.17
2017-04-04T07:18:54.515Z,71.64
2017-04-04T07:20:08.141Z,70.97
2017-04-04T07:21:22.023Z,70.88
2017-04-04T07:22:36.459Z,70.78
2017-04-04T07:23:50.106Z,70.78
2017-04-04T07:25:04.014Z,70.78
2017-04-04T07:26:17.580Z,70.31
2017-04-04T07:27:31.355Z,70.4
2017-04-04T07:28:45.176Z,70.21
2017-04-04T07:29:58.916Z,70.21
2017-04-04T07:31:13.674Z,69.83
2017-04-04T07:32:27.308Z,69.93
2017-04-04T07:33:41.173Z,70.15
2017-04-04T07:34:54.886Z,69.39
2017-04-04T07:36:08.474Z,69.77
2017-04-04T07:37:22.577Z,69.29
2017-04-04T07:38:36.481Z,69.1
2017-04-04T07:39:50.127Z,69.48
2017-04-04T07:41:03.968Z,69.77
2017-04-04T07:42:17.928Z,69.93
2017-04-04T07:43:32.431Z,69.64
2017-04-04T07:44:46.649Z,69.74
2017-04-04T07:46:00.526Z,69.48
2017-04-04T07:47:15.011Z,69.64
2017-04-04T07:48:29.308Z,69.54
2017-04-04T07:49:42.864Z,69.01
2017-04-04T07:50:56.744Z,69.01
2017-04-04T07:52:10.618Z,68.24
2017-04-04T07:53:24.490Z,68.34
2017-04-04T07:54:38.034Z,68.53
2017-04-04T07:56:25.183Z,68.34
2017-04-04T07:57:38.924Z,68.53
2017-04-04T07:58:53.883Z,67.8
2017-04-04T08:00:07.900Z,67.71
2017-04-04T08:01:23.659Z,67.58
2017-04-04T08:02:37.483Z,67.8
2017-04-04T08:03:51.611Z,67.23
2017-04-04T08:05:05.190Z,66.85
2017-04-04T08:06:18.794Z,66.09
2017-04-04T08:07:32.637Z,66.28
2017-04-04T08:08:46.359Z,66.09
2017-04-04T08:10:00.517Z,66.47
2017-04-04T08:11:14.037Z,66.66
2017-04-04T08:12:27.577Z,66.38
2017-04-04T08:13:41.153Z,65.61
2017-04-04T08:14:55.072Z,65.61
2017-04-04T08:16:08.600Z,66.38
2017-04-04T08:17:22.160Z,66.47
2017-04-04T08:18:38.305Z,65.7
2017-04-04T08:19:51.839Z,65.61
2017-04-04T08:21:05.556Z,65.83
2017-04-04T08:22:19.701Z,65.64
2017-04-04T08:23:33.585Z,65.89
2017-04-04T08:24:47.123Z,65.45
2017-04-04T08:26:01.607Z,65.36
2017-04-04T08:27:15.451Z,65.45
2017-04-04T08:28:29.978Z,65.64
2017-04-04T08:29:44.530Z,65.07
2017-04-04T08:30:58.136Z,65.26
2017-04-04T08:32:12.271Z,64.59
2017-04-04T08:33:26.068Z,64.59
2017-04-04T08:34:40.194Z,64.59
2017-04-04T08:35:53.924Z,64.21
2017-04-04T08:37:07.463Z,64.02
2017-04-04T08:38:21.008Z,64.05
2017-04-04T08:39:35.195Z,64.43
2017-04-04T08:40:52.239Z,64.15
2017-04-04T08:42:05.801Z,64.15
2017-04-04T08:43:19.367Z,63.76
2017-04-04T08:44:33.989Z,63.86
2017-04-04T08:45:47.653Z,64.4
2017-04-04T08:47:01.511Z,64.5
2017-04-04T08:48:15.391Z,64.59
2017-04-04T08:49:29.132Z,63.86
2017-04-04T08:50:42.737Z,63.96
2017-04-04T08:51:56.612Z,63.39
2017-04-04T08:53:10.648Z,63.39
2017-04-04T08:54:24.542Z,63.29
2017-04-04T08:55:38.201Z,63.29
2017-04-04T08:56:51.755Z,63.57
2017-04-04T08:58:06.723Z,63.29
2017-04-04T08:59:20.718Z,63.39
2017-04-04T09:00:34.615Z,62.52
2017-04-04T09:01:48.819Z,62.81
2017-04-04T09:03:02.403Z,62.81
2017-04-04T09:04:16.535Z,63.2
2017-04-04T09:05:30.551Z,63.1
2017-04-04T09:06:50.375Z,62.71
2017-04-04T09:08:03.927Z,62.62
2017-04-04T09:09:18.070Z,62.71
2017-04-04T09:10:31.664Z,62.43
2017-04-04T09:11:45.514Z,62.43
2017-04-04T09:12:59.102Z,62.43
2017-04-04T09:14:12.633Z,61.95
2017-04-04T09:15:26.157Z,61.98
2017-04-04T09:16:39.735Z,61.6
2017-04-04T09:17:53.546Z,61.89
2017-04-04T09:19:07.186Z,62.46
2017-04-04T09:20:21.055Z,62.15
2017-04-04T09:21:34.947Z,61.98
2017-04-04T09:22:48.719Z,61.98
2017-04-04T09:24:03.466Z,61.41
2017-04-04T09:25:20.013Z,61.32
2017-04-04T09:26:36.377Z,61.6
2017-04-04T09:27:54.186Z,61.6
2017-04-04T09:29:10.378Z,61.6
2017-04-04T09:30:27.673Z,61.32
2017-04-04T09:31:44.088Z,61.6
2017-04-04T09:33:00.038Z,61.6
2017-04-04T09:34:16.945Z,61.22
2017-04-04T09:35:35.022Z,61.41
2017-04-04T09:36:50.374Z,61.32
2017-04-04T09:38:05.507Z,60.93
2017-04-04T09:39:22.292Z,60.93
2017-04-04T09:40:39.571Z,60.84
2017-04-04T09:41:54.163Z,60.93
2017-04-04T09:43:09.369Z,60.84
2017-04-04T09:44:27.522Z,60.74
2017-04-04T09:45:44.245Z,60.74
2017-04-04T09:47:00.125Z,61.13
2017-04-04T09:48:16.378Z,60.84
2017-04-04T09:49:34.169Z,60.87
2017-04-04T09:50:48.575Z,60.49
2017-04-04T09:52:05.427Z,60.58
2017-04-04T09:53:20.102Z,60.68
2017-04-04T09:54:35.893Z,60.58
2017-04-04T09:55:51.875Z,60.3
2017-04-04T09:57:07.660Z,59.72
2017-04-04T09:58:26.385Z,59.91
2017-04-04T09:59:42.340Z,59.91
2017-04-04T10:00:58.436Z,59.63
2017-04-04T10:02:29.831Z,60.01
2017-04-04T10:03:45.259Z,59.63
2017-04-04T10:05:01.150Z,59.24
2017-04-04T10:06:18.632Z,59.81
2017-04-04T10:07:33.957Z,60.2
2017-04-04T10:08:49.865Z,60.01
2017-04-04T10:10:04.878Z,59.81
2017-04-04T10:11:23.465Z,59.81
2017-04-04T10:12:41.206Z,59.81
2017-04-04T10:13:57.554Z,59.81
2017-04-04T10:15:15.295Z,60.01
2017-04-04T10:16:30.532Z,59.91
2017-04-04T10:17:46.456Z,60.01
2017-04-04T10:19:02.530Z,60.01
2017-04-04T10:20:18.310Z,59.44
2017-04-04T10:21:36.003Z,59.44
2017-04-04T10:22:50.544Z,59.53
2017-04-04T10:24:04.726Z,58.7
2017-04-04T10:25:18.820Z,59.18
2017-04-04T10:26:32.382Z,58.98
2017-04-04T10:27:46.074Z,58.89
2017-04-04T10:28:59.599Z,58.22
2017-04-04T10:30:14.649Z,58.41
2017-04-04T10:31:29.261Z,58.41
2017-04-04T10:32:44.931Z,57.97
2017-04-04T10:33:59.155Z,57.87
2017-04-04T10:35:12.717Z,58.06
2017-04-04T10:36:27.157Z,57.93
2017-04-04T10:37:41.360Z,58.51
2017-04-04T10:38:55.003Z,57.75
2017-04-04T10:40:08.511Z,57.55
2017-04-04T10:41:23.467Z,57.48
2017-04-04T10:42:37.312Z,56.53
2017-04-04T10:44:06.234Z,56.43
2017-04-04T10:45:20.121Z,56.62
2017-04-04T10:46:33.656Z,55.47
2017-04-04T10:47:47.227Z,55.76
2017-04-04T10:49:00.785Z,56.15
2017-04-04T10:50:14.545Z,56.24
2017-04-04T10:51:29.577Z,56.24
2017-04-04T10:52:44.060Z,56.05
2017-04-04T10:53:59.804Z,56.05
2017-04-04T10:55:14.170Z,55.29
2017-04-04T10:56:27.716Z,55.57
2017-04-04T10:57:41.898Z,55.38
2017-04-04T10:58:55.715Z,55.1
2017-04-04T11:00:09.408Z,55.12
2017-04-04T11:01:23.903Z,54.74
2017-04-04T11:02:37.571Z,53.97
2017-04-04T11:03:54.493Z,54.45
2017-04-04T11:05:09.488Z,54.07
2017-04-04T11:06:23.418Z,54.07
2017-04-04T11:07:37.561Z,54.45
2017-04-04T11:08:51.338Z,55.02
2017-04-04T11:10:04.902Z,54.64
2017-04-04T11:11:18.570Z,55.47
2017-04-04T11:12:32.145Z,55.29
2017-04-04T11:13:47.375Z,54.33
2017-04-04T11:15:02.342Z,52.99
2017-04-04T11:16:15.955Z,52.89
2017-04-04T11:17:29.581Z,52.42
2017-04-04T11:18:44.597Z,52.34
2017-04-04T11:19:58.467Z,52.32
2017-04-04T11:21:12.349Z,52.42
2017-04-04T11:22:27.448Z,52.03
2017-04-04T11:23:40.980Z,51.87
2017-04-04T11:24:54.849Z,50.91
2017-04-04T11:26:09.094Z,51.01
2017-04-04T11:27:22.984Z,50.81
2017-04-04T11:28:36.606Z,51.1
2017-04-04T11:29:50.510Z,51.2
2017-04-04T11:31:04.397Z,50.52
2017-04-04T11:32:18.335Z,49.76
2017-04-04T11:33:32.263Z,49.19
2017-04-04T11:34:45.843Z,49
2017-04-04T11:35:59.745Z,47.75
2017-04-04T11:37:13.533Z,47.08
2017-04-04T11:38:27.703Z,46.98
2017-04-04T11:39:54.065Z,47.08
2017-04-04T11:41:07.613Z,46.31
2017-04-04T11:42:21.257Z,46.44
2017-04-04T11:43:34.816Z,44.9
2017-04-04T11:44:48.979Z,45.09
2017-04-04T11:46:02.880Z,47.2
2017-04-04T11:47:16.478Z,47.68
2017-04-04T11:48:30.024Z,48.33
2017-04-04T11:49:43.599Z,48.9
2017-04-04T11:50:57.441Z,48.54
2017-04-04T11:52:11.067Z,47.68
2017-04-04T11:53:24.608Z,47.49
2017-04-04T11:54:38.178Z,47.11
2017-04-04T11:55:55.141Z,45.19
2017-04-04T11:57:09.347Z,43.66
2017-04-04T11:58:22.894Z,43.85
2017-04-04T11:59:36.477Z,43.56
2017-04-04T12:00:51.473Z,43.66
2017-04-04T12:02:05.407Z,43.66
2017-04-04T12:03:19.290Z,43.76
2017-04-04T12:04:32.883Z,43.37
2017-04-04T12:05:46.717Z,43.76
2017-04-04T12:07:19.539Z,43.18
2017-04-04T12:08:34.515Z,43.56
2017-04-04T12:09:48.082Z,43.08
2017-04-04T12:11:03.907Z,42.99
2017-04-04T12:12:18.466Z,43.18
2017-04-04T12:13:32.651Z,43.18
2017-04-04T12:14:46.482Z,43.2
2017-04-04T12:16:00.838Z,43.01
2017-04-04T12:17:14.382Z,43.1
2017-04-04T12:18:28.489Z,43.2
2017-04-04T12:19:42.027Z,43.39
2017-04-04T12:20:55.865Z,43.39
2017-04-04T12:22:10.094Z,43.87
2017-04-04T12:23:25.262Z,43.3
2017-04-04T12:24:38.824Z,43.3
2017-04-04T12:25:52.671Z,43.49
2017-04-04T12:27:06.936Z,43.59
2017-04-04T12:28:21.946Z,42.82
2017-04-04T12:29:35.505Z,43.2
2017-04-04T12:30:49.049Z,43.87
2017-04-04T12:32:02.842Z,43.2
2017-04-04T12:33:22.611Z,43.3
2017-04-04T12:34:36.933Z,42.82
2017-04-04T12:35:51.042Z,41.77
2017-04-04T12:37:05.421Z,41.38
2017-04-04T12:38:20.440Z,40.71
2017-04-04T12:39:34.375Z,39.94
2017-04-04T12:40:49.284Z,40.04
2017-04-04T12:42:03.534Z,40.71
2017-04-04T12:43:18.326Z,40.61
2017-04-04T12:44:32.380Z,40.61
2017-04-04T12:45:46.674Z,40.61
2017-04-04T12:47:01.533Z,39.85
2017-04-04T12:48:15.848Z,39.94
2017-04-04T12:49:29.918Z,39.94
2017-04-04T12:50:44.203Z,40.04
2017-04-04T12:51:58.480Z,39.77
2017-04-04T12:53:13.127Z,39.77
2017-04-04T12:54:28.220Z,39.68
2017-04-04T12:55:42.859Z,40.44
2017-04-04T12:56:56.836Z,40.73
2017-04-04T12:58:10.760Z,40.54
2017-04-04T12:59:25.441Z,40.54
2017-04-04T13:00:39.518Z,40.64
2017-04-04T13:01:53.926Z,40.42
2017-04-04T13:03:08.645Z,40.71
2017-04-04T13:04:23.971Z,41
2017-04-04T13:05:38.589Z,41.17
2017-04-04T13:06:53.224Z,41.17
2017-04-04T13:08:07.929Z,41.74
2017-04-04T13:09:22.560Z,42.13
2017-04-04T13:10:37.213Z,41.74
2017-04-04T13:11:52.141Z,41.74
2017-04-04T13:13:06.809Z,41.94
2017-04-04T13:14:20.977Z,41.67
2017-04-04T13:15:34.933Z,41.19
2017-04-04T13:16:48.899Z,41.19
2017-04-04T13:18:03.857Z,41.09
2017-04-04T13:19:18.521Z,40.71
2017-04-04T13:20:32.528Z,40.52
2017-04-04T13:21:46.573Z,40.71
2017-04-04T13:23:00.479Z,40.42
2017-04-04T13:24:15.485Z,40.52
2017-04-04T13:25:30.108Z,40.42
2017-04-04T13:26:44.780Z,40.52
2017-04-04T13:28:01.855Z,40.52
2017-04-04T13:29:16.338Z,40.06
2017-04-04T13:30:31.494Z,39.56
2017-04-04T13:31:46.766Z,39.94
2017-04-04T13:33:01.142Z,39.56
2017-04-04T13:34:15.729Z,39.37
2017-04-04T13:35:29.700Z,39.18
2017-04-04T13:36:43.942Z,39.01
2017-04-04T13:37:58.345Z,39.2
2017-04-04T13:39:12.293Z,38.62
2017-04-04T13:40:26.237Z,38.24
2017-04-04T13:41:40.588Z,38.43
2017-04-04T13:42:55.132Z,38.43
2017-04-04T13:44:09.703Z,38.34
2017-04-04T13:45:24.003Z,38.14
2017-04-04T13:46:37.984Z,37.85
2017-04-04T13:47:52.289Z,37.93
2017-04-04T13:49:07.198Z,37.95
2017-04-04T13:50:21.272Z,37.47
2017-04-04T13:51:35.950Z,37.38
2017-04-04T13:52:50.190Z,36.8
2017-04-04T13:54:04.874Z,36.8
2017-04-04T13:55:19.471Z,37.18
2017-04-04T13:56:33.823Z,37.28
2017-04-04T13:57:48.168Z,37.18
2017-04-04T13:59:02.676Z,36.99
2017-04-04T14:00:17.673Z,36.8
2017-04-04T14:01:32.345Z,36.42
2017-04-04T14:02:46.651Z,36.71
2017-04-04T14:04:00.725Z,36.71
2017-04-04T14:05:14.775Z,36.22
2017-04-04T14:06:29.064Z,36.32
2017-04-04T14:07:43.679Z,36.22
2017-04-04T14:08:57.954Z,35.75
2017-04-04T14:10:12.358Z,35.36
2017-04-04T14:11:26.669Z,35.36
2017-04-04T14:12:40.651Z,35.36
2017-04-04T14:13:54.618Z,34.5
2017-04-04T14:15:09.027Z,34.31
2017-04-04T14:16:23.479Z,34.59
2017-04-04T14:17:37.601Z,34.5
2017-04-04T14:18:51.884Z,34.5
2017-04-04T14:20:06.430Z,34.69
2017-04-04T14:21:21.070Z,34.41
2017-04-04T14:22:35.406Z,34.1
2017-04-04T14:23:49.752Z,34.39
2017-04-04T14:25:04.850Z,34
2017-04-04T14:26:19.263Z,33.53
2017-04-04T14:27:33.336Z,33.62
2017-04-04T14:28:48.113Z,33.43
2017-04-04T14:30:02.391Z,33.24
2017-04-04T14:31:16.775Z,32.78
2017-04-04T14:32:33.549Z,32.57
2017-04-04T14:33:48.640Z,32.29
2017-04-04T14:35:03.875Z,31.43
2017-04-04T14:36:18.181Z,31.63
2017-04-04T14:37:33.035Z,32.01
2017-04-04T14:38:47.924Z,32.2
2017-04-04T14:40:02.890Z,32.39
2017-04-04T14:41:17.326Z,32.59
2017-04-04T14:42:31.271Z,32.2
2017-04-04T14:43:45.346Z,31.63
2017-04-04T14:45:02.234Z,31.72
2017-04-04T14:46:16.288Z,31.43
2017-04-04T14:47:30.204Z,31.82
2017-04-04T14:48:44.631Z,31.43
2017-04-04T14:49:58.996Z,31.72
2017-04-04T14:51:12.937Z,32.01
2017-04-04T14:52:27.387Z,31.63
2017-04-04T14:53:41.552Z,31.53
2017-04-04T14:54:56.070Z,31.34
2017-04-04T14:56:13.425Z,30.57
2017-04-04T14:57:28.413Z,30.67
2017-04-04T14:58:44.193Z,30.76
2017-04-04T14:59:58.623Z,30.86
2017-04-04T15:01:15.535Z,30.67
2017-04-04T15:02:30.182Z,31.05
2017-04-04T15:03:45.343Z,30.76
2017-04-04T15:05:00.025Z,31.05
2017-04-04T15:06:14.721Z,30.29
2017-04-04T15:07:29.659Z,30.47
2017-04-04T15:08:44.478Z,30
2017-04-04T15:10:00.104Z,30
2017-04-04T15:11:19.839Z,28.94
2017-04-04T15:12:33.963Z,28.85
2017-04-04T15:13:48.229Z,28.37
2017-04-04T15:15:04.327Z,28.19
2017-04-04T15:16:20.441Z,27.79
2017-04-04T15:17:34.762Z,28
2017-04-04T15:18:50.571Z,28.38
2017-04-04T15:20:09.967Z,28.19
2017-04-04T15:21:27.250Z,28.46
2017-04-04T15:22:52.902Z,28.19
2017-04-04T15:24:13.970Z,28.17
2017-04-04T15:25:35.952Z,27.89
2017-04-04T15:27:05.099Z,28
2017-04-04T15:28:24.844Z,27.71
2017-04-04T15:29:40.257Z,27.52
2017-04-04T15:30:54.717Z,27.61
2017-04-04T15:32:09.006Z,27.5
2017-04-04T15:33:23.427Z,27.31
2017-04-04T15:34:39.764Z,27.41
2017-04-04T15:35:55.680Z,27.5
2017-04-04T15:37:11.414Z,27.6
2017-04-04T15:38:26.677Z,26.93
2017-04-04T15:39:42.912Z,26.93
2017-04-04T15:40:58.223Z,26.83
2017-04-04T15:42:14.658Z,26.35
2017-04-04T15:43:31.013Z,26.35
2017-04-04T15:44:47.010Z,26.64
2017-04-04T15:46:02.459Z,26.35
2017-04-04T15:47:20.107Z,26.45
2017-04-04T15:48:40.494Z,26.16
2017-04-04T15:49:57.010Z,25.97
2017-04-04T15:51:11.269Z,25.87
2017-04-04T15:52:26.104Z,25.68
2017-04-04T15:53:41.650Z,25.68
2017-04-04T15:54:59.468Z,25.68
2017-04-04T15:56:13.999Z,25.59
2017-04-04T15:57:29.691Z,25.87
2017-04-04T15:58:45.074Z,25.87
2017-04-04T16:00:03.577Z,25.87
2017-04-04T16:01:20.326Z,25.78
2017-04-04T16:02:34.779Z,25.87
2017-04-04T16:03:54.295Z,25.97
2017-04-04T16:05:08.751Z,25.68